Valley Grande, Alabama
Current Conditions -  °F | °C
As of 8:55 AM on Friday 28 Nov 2014 (Local Time) from KSEM Reporting Station
Clear Clear  
Wind Chill: 32°   Ceiling: Unl
Heat Index: 37°   Visibility: 10mi
Dew Point: 28°   Wind: 7mph
Humidity: 70%   Direction: 70°ENE
Pressure: 30.46"   Gusts: NA
Location:  32.4554°N, 86.9821°W
Report Text: KSEM 281455Z AUTO 07006KT 10SM CLR 03/M02 A3046 RMK AO2
Loading
Personal Weather Stations






























Interactive Weather Map New forecast layout! Learn more

10-Day Weather Forecast

Advertisements
Track Severe Weather on mobile